Flight Track Log - Related Links

Times and Time Zones

All times are in EDT time to prevent confusion due to time zone crossing. See the UAL33 flight status page for this flight to view local times or setup timezone preferences in your user account.

Time Position Orientation Groundspeed Altitude Reporting Facility
EDT Latitude Longitude Course Direction KTS MPH feet Rate Location/Type
Mon 10:00:17 PM 41.9800 -87.9120 326° Northwest 12 14  Level FlightAware ADS-B
Mon 10:00:57 PM 41.9810 -87.9120 360° North 19 22 145 Level FlightAware ADS-B
Mon 10:02:36 PM 41.9820 -87.9110 37° Northeast 15 17 151 Level FlightAware ADS-B
Mon 10:03:15 PM 41.9810 -87.9120 217° Southwest 26 30 170 Level FlightAware ADS-B
Mon 10:04:07 PM 41.9780 -87.9130 194° South 30 35 178 Level FlightAware ADS-B
Mon 10:06:00 PM 41.9333 -88.2209 270° West  Level FlightAware Approximate
Mon 10:07:00 PM 41.9225 -88.3874 255° West  Level FlightAware Approximate
Mon 10:08:00 PM 41.9065 -88.5537 261° West  Level FlightAware Approximate
Mon 10:09:00 PM 41.8869 -88.7199 261° West  Level FlightAware Approximate
Mon 10:10:00 PM 41.8678 -88.8862 261° West  Level FlightAware Approximate
Mon 10:11:00 PM 41.8486 -89.0525 261° West  Level FlightAware Approximate
Mon 10:12:00 PM 41.8289 -89.2186 260° West  Level FlightAware Approximate
Mon 10:13:00 PM 41.8080 -89.3843 260° West  Level FlightAware Approximate
Mon 10:14:00 PM 41.7868 -89.5500 260° West  Level FlightAware Approximate
Mon 10:15:00 PM 41.7654 -89.7156 260° West  Level FlightAware Approximate
Mon 10:16:09 PM 42.0090 -87.9520 325° Northwest 183 211 2,300  Level FlightAware ADS-B
Mon 10:16:34 PM 42.0320 -87.9740 325° Northwest 224 258 3,300 2,462 Climbing FlightAware ADS-B
Mon 10:16:48 PM 42.0440 -87.9850 326° Northwest 239 275 3,900 2,233 Climbing FlightAware ADS-B
Mon 10:17:17 PM 42.0720 -88.0100 326° Northwest 260 299 4,900 1,263 Climbing FlightAware ADS-B
Mon 10:17:45 PM 42.1010 -88.0350 327° Northwest 266 306 5,100 1,286 Climbing FlightAware ADS-B
Mon 10:18:13 PM 42.1300 -88.0610 326° Northwest 268 308 6,100 3,000 Climbing FlightAware ADS-B
Mon 10:18:41 PM 42.1580 -88.0880 324° Northwest 270 311 7,900 4,091 Climbing FlightAware ADS-B
Mon 10:18:57 PM 42.1670 -88.1130 296° West 266 306 9,100 3,927 Climbing FlightAware ADS-B
Mon 10:19:36 PM 42.1600 -88.1750 261° West 276 318 11,500 2,854 Climbing FlightAware ADS-B
Mon 10:20:19 PM 42.1350 -88.2450 244° Southwest 293 337 13,000 1,047 Climbing FlightAware ADS-B
Mon 10:21:02 PM 42.1100 -88.3160 245° Southwest 287 330 13,000 1,310 Level FlightAware ADS-B
Mon 10:21:46 PM 42.0820 -88.3870 242° Southwest 297 342 14,900 3,108 Climbing FlightAware ADS-B
Mon 10:22:25 PM 42.0560 -88.4500 241° Southwest 305 351 17,300 3,357 Climbing FlightAware ADS-B
Mon 10:23:10 PM 42.0240 -88.5240 240° Southwest 302 348 19,600 1,906 Climbing FlightAware ADS-B
Mon 10:23:50 PM 41.9960 -88.5920 241° Southwest 316 364 20,000 300 Climbing FlightAware ADS-B
Mon 10:24:30 PM 41.9690 -88.6590 242° Southwest 309 356 20,000  Level FlightAware ADS-B
Mon 10:24:47 PM 41.9620 -88.6890 253° West 300 345 20,000 1,345 Level FlightAware ADS-B
Mon 10:25:28 PM 41.9550 -88.7660 263° West 303 349 21,300 2,049 Climbing FlightAware ADS-B
Mon 10:26:09 PM 41.9500 -88.8420 265° West 317 365 22,800 1,200 Climbing FlightAware ADS-B
Mon 10:26:53 PM 41.9430 -88.9320 264° West 321 369 23,000 578 Climbing FlightAware ADS-B
Mon 10:27:32 PM 41.9370 -89.0110 264° West 349 402 23,600 1,714 Climbing FlightAware ADS-B
Mon 10:28:17 PM 41.9310 -89.1110 265° West 368 423 25,400 2,897 Climbing FlightAware ADS-B
Mon 10:28:59 PM 41.9150 -89.2050 257° West 364 419 27,800 2,259 Climbing FlightAware ADS-B
Mon 10:29:42 PM 41.8940 -89.3030 254° West 396 456 28,600 1,125 Climbing FlightAware ADS-B
Mon 10:30:19 PM 41.8760 -89.3910 255° West 418 481 29,300 1,098 Climbing FlightAware ADS-B
Mon 10:31:04 PM 41.8550 -89.4890 254° West 435 501 30,100 1,341 Climbing FlightAware ADS-B
Mon 10:31:44 PM 41.8280 -89.6150 254° West 450 518 31,200 1,765 Climbing FlightAware ADS-B
Mon 10:32:29 PM 41.8030 -89.7350 254° West 449 517 32,600 1,884 Climbing FlightAware ADS-B
Mon 10:33:10 PM 41.7790 -89.8440 254° West 447 514 33,900 1,765 Climbing FlightAware ADS-B
Mon 10:33:54 PM 41.7550 -89.9580 254° West 448 516 35,100 1,518 Climbing FlightAware ADS-B
Mon 10:34:33 PM 41.7320 -90.0640 254° West 450 518 36,000 684 Climbing FlightAware ADS-B
Mon 10:35:13 PM 41.7090 -90.1710 254° West 451 519 36,000  Level FlightAware ADS-B
Mon 10:35:58 PM 41.6830 -90.2890 254° West 452 520 36,000  Level FlightAware ADS-B
Mon 10:36:41 PM 41.6570 -90.4040 253° West 455 524 36,000 71 Level FlightAware ADS-B
Mon 10:37:22 PM 41.6330 -90.5150 254° West 457 526 36,100 835 Climbing FlightAware ADS-B
Mon 10:38:00 PM 41.6100 -90.6190 254° West 451 519 37,100 1,341 Climbing FlightAware ADS-B
Mon 10:38:47 PM 41.5830 -90.7410 254° West 449 517 38,000 1,049 Climbing FlightAware ADS-B
Mon 10:39:43 PM 41.5490 -90.8930 253° West 454 522 38,900 866 Climbing FlightAware ADS-B
Mon 10:40:24 PM 41.5240 -91.0000 253° West 452 520 39,400 786 Climbing FlightAware ADS-B
Mon 10:41:07 PM 41.4800 -91.1070 241° Southwest 453 521 40,000 434 Climbing FlightAware ADS-B
Mon 10:41:47 PM 41.4320 -91.1990 235° Southwest 454 522 40,000  Level FlightAware ADS-B
Mon 10:42:32 PM 41.3790 -91.3010 235° Southwest 458 527 40,000  Level FlightAware ADS-B
Mon 10:43:09 PM 41.3350 -91.3850 235° Southwest 458 527 40,000  Level FlightAware ADS-B
Mon 10:43:52 PM 41.2810 -91.4870 235° Southwest 459 528 40,000  Level FlightAware ADS-B
Mon 10:44:37 PM 41.2260 -91.5920 235° Southwest 455 524 40,000  Level FlightAware ADS-B
Mon 10:45:14 PM 41.1840 -91.6710 235° Southwest 451 519 40,000  Level FlightAware ADS-B
Mon 10:46:06 PM 41.1260 -91.7810 235° Southwest 451 519 40,000  Level FlightAware ADS-B
Mon 10:46:51 PM 41.0670 -91.8910 235° Southwest 453 521 40,000  Level FlightAware ADS-B
Mon 10:47:37 PM 41.0110 -91.9980 235° Southwest 454 522 40,000  Level FlightAware ADS-B
Mon 10:48:19 PM 40.9590 -92.0940 234° Southwest 455 524 40,000  Level FlightAware ADS-B
Mon 10:49:02 PM 40.9080 -92.1900 235° Southwest 456 525 40,000  Level FlightAware ADS-B
Mon 10:49:44 PM 40.8550 -92.2870 234° Southwest 456 525 40,000  Level FlightAware ADS-B
Mon 10:50:25 PM 40.8080 -92.3760 235° Southwest 457 526 40,000  Level FlightAware ADS-B
Mon 10:51:10 PM 40.7500 -92.4810 234° Southwest 457 526 40,000  Level FlightAware ADS-B
Mon 10:51:48 PM 40.7030 -92.5680 235° Southwest 458 527 40,000  Level FlightAware ADS-B
Mon 10:52:32 PM 40.6490 -92.6680 235° Southwest 457 526 40,000  Level FlightAware ADS-B
Mon 10:53:09 PM 40.6040 -92.7510 234° Southwest 459 528 40,000  Level FlightAware ADS-B
Mon 10:53:58 PM 40.5450 -92.8570 234° Southwest 460 529 40,000  Level FlightAware ADS-B
Mon 10:54:38 PM 40.4940 -92.9500 234° Southwest 459 528 40,000  Level FlightAware ADS-B
Mon 10:55:17 PM 40.4460 -93.0370 234° Southwest 460 529 40,000  Level FlightAware ADS-B
Mon 10:56:01 PM 40.3890 -93.1400 234° Southwest 459 528 40,000  Level FlightAware ADS-B
Mon 10:56:45 PM 40.3350 -93.2380 234° Southwest 458 527 40,000  Level FlightAware ADS-B
Mon 10:57:25 PM 40.2840 -93.3280 233° Southwest 457 526 40,000  Level FlightAware ADS-B
Mon 10:58:09 PM 40.2290 -93.4280 234° Southwest 459 528 40,000  Level FlightAware ADS-B
Mon 10:58:49 PM 40.1800 -93.5160 234° Southwest 458 527 40,000  Level FlightAware ADS-B
Mon 10:59:31 PM 40.1270 -93.6100 234° Southwest 459 528 40,000  Level FlightAware ADS-B
Mon 11:00:13 PM 40.0750 -93.7020 234° Southwest 460 529 40,000  Level FlightAware ADS-B
Mon 11:00:53 PM 40.0190 -93.7880 230° Southwest 465 535 40,000  Level FlightAware ADS-B
Mon 11:01:37 PM 39.9460 -93.8680 220° Southwest 469 540 40,000  Level FlightAware ADS-B
Mon 11:02:21 PM 39.8720 -93.9480 220° Southwest 468 539 40,000  Level FlightAware ADS-B
Mon 11:03:02 PM 39.8050 -94.0200 220° Southwest 468 539 40,000  Level FlightAware ADS-B
Mon 11:03:43 PM 39.7390 -94.0910 220° Southwest 468 539 40,000  Level FlightAware ADS-B
Mon 11:04:26 PM 39.6680 -94.1670 219° Southwest 469 540 40,000  Level FlightAware ADS-B
Mon 11:05:07 PM 39.5950 -94.2440 219° Southwest 471 542 40,000  Level FlightAware ADS-B
Mon 11:05:51 PM 39.5210 -94.3230 219° Southwest 471 542 40,000  Level FlightAware ADS-B
Mon 11:06:31 PM 39.4530 -94.3950 219° Southwest 472 543 40,000  Level FlightAware ADS-B
Mon 11:07:13 PM 39.3810 -94.4700 219° Southwest 472 543 40,000  Level FlightAware ADS-B
Mon 11:07:57 PM 39.3070 -94.5480 219° Southwest 470 541 40,000  Level FlightAware ADS-B
Mon 11:08:37 PM 39.2400 -94.6180 219° Southwest 472 543 40,000  Level FlightAware ADS-B
Mon 11:09:23 PM 39.1620 -94.7000 219° Southwest 471 542 40,000  Level FlightAware ADS-B
Mon 11:10:04 PM 39.0940 -94.7720 219° Southwest 469 540 40,000  Level FlightAware ADS-B
Mon 11:10:45 PM 39.0240 -94.8440 219° Southwest 469 540 40,000  Level FlightAware ADS-B
Mon 11:11:32 PM 38.9770 -94.8930 219° Southwest 468 539 40,000  Level FlightAware ADS-B
Mon 11:12:17 PM 38.8710 -95.0020 219° Southwest 469 540 40,000  Level FlightAware ADS-B
Mon 11:12:59 PM 38.7860 -95.0570 207° Southwest 483 556 40,000  Level FlightAware ADS-B
Mon 11:13:39 PM 38.7030 -95.0850 195° South 483 556 40,000  Level FlightAware ADS-B
Mon 11:14:24 PM 38.6070 -95.1170 195° South 482 555 40,000  Level FlightAware ADS-B
Mon 11:15:04 PM 38.5180 -95.1460 194° South 482 555 40,000  Level FlightAware ADS-B
Mon 11:15:48 PM 38.4220 -95.1780 195° South 481 554 40,000  Level FlightAware ADS-B
Mon 11:16:29 PM 38.3390 -95.2050 194° South 482 555 40,000  Level FlightAware ADS-B
Mon 11:17:10 PM 38.2450 -95.2360 195° South 484 557 40,000  Level FlightAware ADS-B
Mon 11:17:52 PM 38.1520 -95.2670 195° South 483 556 40,000  Level FlightAware ADS-B
Mon 11:18:34 PM 38.0590 -95.2970 194° South 482 555 40,000  Level FlightAware ADS-B
Mon 11:19:19 PM 37.9650 -95.3280 195° South 484 557 40,000  Level FlightAware ADS-B
Mon 11:19:59 PM 37.8770 -95.3570 195° South 483 556 40,000  Level FlightAware ADS-B
Mon 11:20:39 PM 37.7900 -95.3850 194° South 481 554 40,000  Level FlightAware ADS-B
Mon 11:21:23 PM 37.6950 -95.4160 194° South 479 551 40,000  Level FlightAware ADS-B
Mon 11:22:05 PM 37.6060 -95.4450 194° South 479 551 40,000  Level FlightAware ADS-B
Mon 11:22:43 PM 37.5240 -95.4710 194° South 479 551 40,000  Level FlightAware ADS-B
Mon 11:23:29 PM 37.4260 -95.5030 195° South 479 551 40,000  Level FlightAware ADS-B
Mon 11:24:11 PM 37.3330 -95.5320 194° South 480 552 40,000  Level FlightAware ADS-B
Mon 11:24:55 PM 37.2390 -95.5630 195° South 485 558 40,000  Level FlightAware ADS-B
Mon 11:25:51 PM 37.1310 -95.5970 194° South 485 558 40,000  Level FlightAware ADS-B
Mon 11:26:46 PM 36.9990 -95.6390 194° South 482 555 40,000  Level FlightAware ADS-B
Mon 11:27:27 PM 36.9090 -95.6670 194° South 480 552 40,000  Level FlightAware ADS-B
Mon 11:28:06 PM 36.8250 -95.6940 194° South 478 550 40,000  Level FlightAware ADS-B
Mon 11:28:51 PM 36.7480 -95.7180 194° South 478 550 40,000  Level FlightAware ADS-B
Mon 11:29:27 PM 36.6820 -95.7390 194° South 478 550 40,000  Level FlightAware ADS-B
Mon 11:30:27 PM 36.5330 -95.7860 194° South 476 548 40,000  Level FlightAware ADS-B
Mon 11:31:04 PM 36.4660 -95.8070 194° South 476 548 40,000  Level FlightAware ADS-B
Mon 11:32:24 PM 36.3200 -95.8520 194° South 476 548 40,000  Level FlightAware ADS-B
Mon 11:33:00 PM 36.2550 -95.8720 194° South 476 548 40,000  Level FlightAware ADS-B
Mon 11:33:44 PM 36.1000 -95.9210 194° South 482 555 40,000  Level FlightAware ADS-B
Mon 11:34:28 PM 36.0040 -95.9510 194° South 482 555 40,000  Level FlightAware ADS-B
Mon 11:35:10 PM 35.9120 -95.9800 194° South 480 552 40,000  Level FlightAware ADS-B
Mon 11:35:52 PM 35.8240 -96.0070 194° South 478 550 40,000  Level FlightAware ADS-B
Mon 11:36:32 PM 35.7410 -96.0320 194° South 471 542 40,000  Level FlightAware ADS-B
Mon 11:37:13 PM 35.6530 -96.0590 194° South 474 545 40,000  Level FlightAware ADS-B
Mon 11:37:56 PM 35.5640 -96.0870 194° South 478 550 40,000  Level FlightAware ADS-B
Mon 11:38:39 PM 35.4680 -96.1160 194° South 481 554 40,000  Level FlightAware ADS-B
Mon 11:39:20 PM 35.3760 -96.1440 194° South 481 554 40,000  Level FlightAware ADS-B
Mon 11:40:04 PM 35.2830 -96.1740 195° South 479 551 40,000  Level FlightAware ADS-B
Mon 11:40:45 PM 35.1960 -96.2010 194° South 477 549 40,000  Level FlightAware ADS-B
Mon 11:41:25 PM 35.1090 -96.2280 194° South 474 545 40,000  Level FlightAware ADS-B
Mon 11:42:09 PM 35.0160 -96.2570 194° South 476 548 40,000  Level FlightAware ADS-B
Mon 11:42:50 PM 34.9260 -96.2850 194° South 479 551 40,000  Level FlightAware ADS-B
Mon 11:43:29 PM 34.8430 -96.3110 194° South 484 557 40,000  Level FlightAware ADS-B
Mon 11:44:16 PM 34.7420 -96.3430 195° South 484 557 40,000  Level FlightAware ADS-B
Mon 11:44:55 PM 34.6570 -96.3690 194° South 479 551 40,000  Level FlightAware ADS-B
Mon 11:45:32 PM 34.5760 -96.3940 194° South 477 549 40,000  Level FlightAware ADS-B
Mon 11:46:23 PM 34.4690 -96.4270 194° South 477 549 40,000  Level FlightAware ADS-B
Mon 11:47:05 PM 34.3780 -96.4550 194° South 475 547 40,000  Level FlightAware ADS-B
Mon 11:47:45 PM 34.2900 -96.4700 188° South 490 564 40,000 -214 Level FlightAware ADS-B
Mon 11:48:29 PM 34.1900 -96.4720 181° South 495 570 39,700 -1,037 Descending FlightAware ADS-B
Mon 11:49:06 PM 34.1050 -96.4730 181° South 503 579 38,600 -1,778 Descending FlightAware ADS-B
Mon 11:49:50 PM 33.9990 -96.4750 181° South 508 585 37,300 -1,705 Descending FlightAware ADS-B
Mon 11:50:34 PM 33.8960 -96.4770 181° South 515 593 36,100 -918 Descending FlightAware ADS-B
Mon 11:51:15 PM 33.7990 -96.4780 180° South 519 597 36,000 -73 Descending FlightAware ADS-B
Mon 11:51:56 PM 33.7000 -96.4800 181° South 520 598 36,000  Level FlightAware ADS-B
Mon 11:52:39 PM 33.5990 -96.4810 180° South 519 597 36,000  Level FlightAware ADS-B
Mon 11:53:10 PM 33.5216 -96.4828 181° South 514 592 36,000  Level FlightAware ADS-B
Mon 11:53:41 PM 33.4482 -96.4837 181° South 511 588 36,000  Level FlightAware ADS-B
Mon 11:54:11 PM 33.3767 -96.4851 181° South 510 587 36,000  Level FlightAware ADS-B
Mon 11:54:45 PM 33.2961 -96.4864 181° South 509 586 36,000  Level FlightAware ADS-B
Mon 11:55:16 PM 33.2226 -96.4875 181° South 509 586 36,000  Level FlightAware ADS-B
Mon 11:56:04 PM 33.1100 -96.4893 181° South 511 588 36,000  Level FlightAware ADS-B
Mon 11:56:53 PM 32.9960 -96.4910 181° South 515 593 36,000  Level FlightAware ADS-B
Mon 11:57:17 PM 32.9364 -96.4924 181° South 513 590 36,000  Level FlightAware ADS-B
Mon 11:57:47 PM 32.8644 -96.4935 181° South 515 593 36,000  Level FlightAware ADS-B
Mon 11:58:18 PM 32.7909 -96.4946 181° South 516 594 36,000  Level FlightAware ADS-B
Mon 11:59:00 PM 32.6914 -96.4961 181° South 517 595 36,000  Level FlightAware ADS-B
Mon 11:59:39 PM 32.5970 -96.4980 181° South 521 600 36,000  Level FlightAware ADS-B
Mon 11:59:51 PM 32.5683 -96.4982 180° South 520 598 36,000  Level FlightAware ADS-B
Tue 12:00:28 AM 32.4789 -96.4996 181° South 520 598 36,000  Level FlightAware ADS-B
Tue 12:01:05 AM 32.3910 -96.5010 181° South 517 595 36,000  Level FlightAware ADS-B
Tue 12:01:27 AM 32.3381 -96.5018 181° South 518 596 36,000  Level FlightAware ADS-B
Tue 12:01:59 AM 32.2592 -96.5031 181° South 521 600 36,000  Level FlightAware ADS-B
Tue 12:02:31 AM 32.1822 -96.5043 181° South 524 603 36,000  Level FlightAware ADS-B
Tue 12:03:02 AM 32.1085 -96.5055 181° South 523 602 36,000  Level FlightAware ADS-B
Tue 12:03:34 AM 32.0303 -96.5070 181° South 524 603 36,000 -95 Level FlightAware ADS-B
Tue 12:04:05 AM 31.9543 -96.5080 181° South 518 596 35,900 -787 Descending FlightAware ADS-B
Tue 12:04:35 AM 31.8834 -96.5091 181° South 507 583 35,200 -1,697 Descending FlightAware ADS-B
Tue 12:06:37 AM 31.6075 -96.5133 181° South 473 544 31,600 -1,727 Descending FlightAware ADS-B
Tue 12:06:54 AM 31.5709 -96.5137 181° South 467 537 31,200 -1,200 Descending FlightAware ADS-B
Tue 12:07:27 AM 31.5008 -96.5047 171° South 461 531 30,600 -1,538 Descending FlightAware ADS-B
Tue 12:07:33 AM 31.4882 -96.5015 168° South 467 537 30,200 -2,739 Descending FlightAware ADS-B
Tue 12:08:13 AM 31.4043 -96.4706 162° South 474 545 28,500 -2,441 Descending FlightAware ADS-B
Tue 12:08:32 AM 31.3659 -96.4522 158° South 473 544 27,800 -2,143 Descending FlightAware ADS-B
Tue 12:08:55 AM 31.3204 -96.4254 153° Southeast 469 540 27,000 -1,925 Descending FlightAware ADS-B
Tue 12:09:25 AM 31.2639 -96.3880 150° Southeast 460 529 26,100 -1,831 Descending FlightAware ADS-B
Tue 12:11:29 AM 31.0428 -96.2441 151° Southeast 427 491 22,300 -1,792 Descending FlightAware ADS-B
Tue 12:11:59 AM 30.9916 -96.2108 151° Southeast 419 482 21,500 -1,700 Descending FlightAware ADS-B
Tue 12:12:29 AM 30.9409 -96.1776 151° Southeast 411 473 20,600 -1,733 Descending FlightAware ADS-B
Tue 12:14:59 AM 30.7006 -96.0217 151° Southeast 377 434 16,300 -1,700 Descending FlightAware ADS-B
Tue 12:15:29 AM 30.6552 -95.9925 151° Southeast 371 427 15,500 -1,582 Descending FlightAware ADS-B
Tue 12:16:30 AM 30.5654 -95.9346 151° Southeast 366 421 13,900 -1,587 Descending FlightAware ADS-B
Tue 12:17:30 AM 30.4762 -95.8769 151° Southeast 361 415 12,300 -1,459 Descending FlightAware ADS-B
Tue 12:17:44 AM 30.4574 -95.8630 147° Southeast 351 404 12,100 -968 Descending FlightAware ADS-B
Tue 12:18:01 AM 30.4355 -95.8430 139° Southeast 342 394 11,800 -833 Descending FlightAware ADS-B
Tue 12:18:20 AM 30.4163 -95.8174 128° Southeast 334 384 11,600 -480 Descending FlightAware ADS-B
Tue 12:18:51 AM 30.3920 -95.7719 122° Southeast 310 357 11,400 -677 Descending FlightAware ADS-B
Tue 12:20:24 AM 30.3241 -95.6445 122° Southeast 286 329 10,200 -750 Descending FlightAware ADS-B
Tue 12:20:43 AM 30.3112 -95.6203 122° Southeast 283 326 10,000 -146 Descending FlightAware ADS-B
Tue 12:21:46 AM 30.2680 -95.5389 122° Southeast 286 329 10,000  Level FlightAware ADS-B
Tue 12:22:13 AM 30.2492 -95.5035 122° Southeast 285 328 10,000  Level FlightAware ADS-B
Tue 12:22:43 AM 30.2290 -95.4658 122° Southeast 276 318 10,000 -419 Level FlightAware ADS-B
Tue 12:23:39 AM 30.1906 -95.3937 121° Southeast 280 322 9,400 -750 Descending FlightAware ADS-B
Tue 12:23:55 AM 30.1800 -95.3741 122° Southeast 281 323 9,100 -1,174 Descending FlightAware ADS-B
Tue 12:24:25 AM 30.1595 -95.3357 122° Southeast 279 321 8,500 -1,200 Descending FlightAware ADS-B
Tue 12:24:40 AM 30.1491 -95.3162 122° Southeast 277 319 8,200 -1,279 Descending FlightAware ADS-B
Tue 12:25:26 AM 30.1181 -95.2580 122° Southeast 281 323 7,200 -1,300 Descending FlightAware ADS-B
Tue 12:25:40 AM 30.1084 -95.2401 122° Southeast 281 323 6,900 -1,174 Descending FlightAware ADS-B
Tue 12:26:12 AM 30.0866 -95.1995 122° Southeast 277 319 6,300 -1,013 Descending FlightAware ADS-B
Tue 12:26:57 AM 30.0566 -95.1438 122° Southeast 268 308 5,600 -1,000 Descending FlightAware ADS-B
Tue 12:27:12 AM 30.0465 -95.1251 122° Southeast 266 306 5,300 -1,200 Descending FlightAware ADS-B

Login

Don't have an account? Register now (free) for customized features, flight alerts, and more!